createdAt,value
2019-05-01T00:01:49.171Z,11.60
2019-05-01T00:04:11.142Z,11.60
2019-05-01T00:06:16.635Z,11.60
2019-05-01T00:08:20.537Z,11.30
2019-05-01T00:10:25.324Z,11.30
2019-05-01T00:12:29.269Z,11.20
2019-05-01T00:14:33.180Z,11.10
2019-05-01T00:16:37.182Z,11.20
2019-05-01T00:18:41.111Z,11.10
2019-05-01T00:20:45.012Z,11.20
2019-05-01T00:22:48.931Z,11.20
2019-05-01T00:24:52.846Z,11.30
2019-05-01T00:26:56.919Z,11.30
2019-05-01T00:29:00.812Z,11.30
2019-05-01T00:31:04.697Z,11.30
2019-05-01T00:33:08.614Z,11.20
2019-05-01T00:35:12.641Z,11.20
2019-05-01T00:37:16.555Z,11.10
2019-05-01T00:39:20.447Z,11.10
2019-05-01T00:41:24.341Z,11.10
2019-05-01T00:43:28.270Z,11.20
2019-05-01T00:45:32.217Z,11.20
2019-05-01T00:47:36.105Z,11.40
2019-05-01T00:49:40.046Z,11.30
2019-05-01T00:51:43.922Z,11.30
2019-05-01T00:53:47.872Z,11.40
2019-05-01T00:55:59.436Z,11.30
2019-05-01T00:58:04.905Z,11.30
2019-05-01T01:00:27.408Z,11.00
2019-05-01T01:02:37.147Z,11.10
2019-05-01T01:04:42.971Z,11.20
2019-05-01T01:06:46.890Z,11.10
2019-05-01T01:08:52.126Z,11.10
2019-05-01T01:10:56.262Z,11.20
2019-05-01T01:13:00.192Z,11.10
2019-05-01T01:15:07.157Z,11.20
2019-05-01T01:17:12.212Z,11.20
2019-05-01T01:19:16.138Z,11.10
2019-05-01T01:21:22.995Z,11.00
2019-05-01T01:23:27.424Z,11.10
2019-05-01T01:25:31.295Z,11.10
2019-05-01T01:27:35.188Z,11.10
2019-05-01T01:29:39.118Z,11.10
2019-05-01T01:31:42.992Z,11.00
2019-05-01T01:33:46.942Z,11.00
2019-05-01T01:35:50.831Z,11.00
2019-05-01T01:37:54.711Z,11.00
2019-05-01T01:39:58.970Z,10.90
2019-05-01T01:42:02.981Z,11.00
2019-05-01T01:44:11.889Z,11.00
2019-05-01T01:46:22.556Z,10.90
2019-05-01T01:48:26.968Z,10.90
2019-05-01T01:50:31.113Z,10.80
2019-05-01T01:52:35.538Z,10.90
2019-05-01T01:54:39.499Z,10.90
2019-05-01T01:56:43.615Z,10.90
2019-05-01T01:58:49.000Z,10.90
2019-05-01T02:01:09.543Z,11.00
2019-05-01T02:03:10.372Z,10.90
2019-05-01T02:05:17.666Z,10.90
2019-05-01T02:07:22.065Z,10.90
2019-05-01T02:09:26.684Z,10.80
2019-05-01T02:11:31.109Z,10.80
2019-05-01T02:13:35.216Z,10.70
2019-05-01T02:15:39.328Z,10.80
2019-05-01T02:17:43.442Z,10.70
2019-05-01T02:19:50.818Z,10.80
2019-05-01T02:21:55.029Z,10.70
2019-05-01T02:23:59.345Z,10.70
2019-05-01T02:26:04.066Z,10.70
2019-05-01T02:28:27.229Z,10.70
2019-05-01T02:30:31.562Z,10.60
2019-05-01T02:32:36.597Z,10.60
2019-05-01T02:34:43.408Z,10.70
2019-05-01T02:36:51.297Z,10.60
2019-05-01T02:38:58.295Z,10.60
2019-05-01T02:41:04.162Z,10.60
2019-05-01T02:43:12.969Z,10.50
2019-05-01T02:45:20.070Z,10.60
2019-05-01T02:47:28.165Z,10.60
2019-05-01T02:49:35.965Z,10.60
2019-05-01T02:51:42.387Z,10.50
2019-05-01T02:53:47.562Z,10.60
2019-05-01T02:56:10.811Z,10.60
2019-05-01T02:58:15.776Z,10.60
2019-05-01T03:00:19.697Z,10.50
2019-05-01T03:02:27.990Z,10.50
2019-05-01T03:04:35.135Z,10.40
2019-05-01T03:06:40.423Z,10.50
2019-05-01T03:08:45.097Z,10.50
2019-05-01T03:10:49.198Z,10.40
2019-05-01T03:12:54.331Z,10.40
2019-05-01T03:15:01.272Z,10.50
2019-05-01T03:17:07.310Z,10.40
2019-05-01T03:19:16.230Z,10.50
2019-05-01T03:21:21.824Z,10.50
2019-05-01T03:23:27.886Z,10.50
2019-05-01T03:25:32.401Z,10.40
2019-05-01T03:27:36.515Z,10.40
2019-05-01T03:29:41.233Z,10.40
2019-05-01T03:32:13.037Z,10.40
2019-05-01T03:33:51.645Z,10.40
2019-05-01T03:35:55.715Z,10.40
2019-05-01T03:38:00.390Z,10.40
2019-05-01T03:40:05.729Z,10.30
2019-05-01T03:42:13.067Z,10.30
2019-05-01T03:44:17.875Z,10.30
2019-05-01T03:46:22.289Z,10.30
2019-05-01T03:48:26.902Z,10.40
2019-05-01T03:50:31.021Z,10.30
2019-05-01T03:52:35.950Z,10.20
2019-05-01T03:54:40.172Z,10.20
2019-05-01T03:56:45.100Z,10.20
2019-05-01T03:58:49.507Z,10.30
2019-05-01T04:01:10.909Z,10.10
2019-05-01T04:03:22.866Z,10.10
2019-05-01T04:05:26.779Z,10.10
2019-05-01T04:07:36.078Z,10.10
2019-05-01T04:09:37.674Z,10.10
2019-05-01T04:11:41.654Z,10.00
2019-05-01T04:13:46.963Z,10.00
2019-05-01T04:15:50.941Z,10.00
2019-05-01T04:17:56.655Z,10.10
2019-05-01T04:20:00.602Z,10.10
2019-05-01T04:22:12.929Z,9.90
2019-05-01T04:24:20.284Z,9.90
2019-05-01T04:26:24.578Z,9.80
2019-05-01T04:28:39.022Z,9.90
2019-05-01T04:31:01.540Z,10.00
2019-05-01T04:33:09.175Z,10.00
2019-05-01T04:35:15.481Z,9.90
2019-05-01T04:37:21.461Z,10.00
2019-05-01T04:39:25.337Z,10.00
2019-05-01T04:41:29.567Z,10.00
2019-05-01T04:43:36.388Z,10.00
2019-05-01T04:45:40.419Z,10.00
2019-05-01T04:47:44.746Z,9.90
2019-05-01T04:49:49.017Z,10.00
2019-05-01T04:51:54.028Z,10.00
2019-05-01T04:54:00.653Z,10.00
2019-05-01T04:56:05.184Z,10.00
2019-05-01T04:58:09.878Z,10.00
2019-05-01T05:00:13.957Z,10.00
2019-05-01T05:02:19.682Z,10.00
2019-05-01T05:04:24.858Z,10.00
2019-05-01T05:06:30.579Z,10.00
2019-05-01T05:08:35.916Z,10.00
2019-05-01T05:10:39.821Z,10.10
2019-05-01T05:12:46.391Z,9.90
2019-05-01T05:15:05.356Z,9.80
2019-05-01T05:17:23.238Z,10.00
2019-05-01T05:19:27.648Z,10.10
2019-05-01T05:21:31.864Z,10.00
2019-05-01T05:23:37.347Z,10.10
2019-05-01T05:25:42.040Z,10.00
2019-05-01T05:27:46.730Z,10.00
2019-05-01T05:29:52.617Z,10.00
2019-05-01T05:31:58.794Z,10.00
2019-05-01T05:34:04.556Z,9.90
2019-05-01T05:36:10.346Z,9.90
2019-05-01T05:38:33.537Z,9.80
2019-05-01T05:40:39.166Z,9.90
2019-05-01T05:42:43.086Z,9.90
2019-05-01T05:44:48.842Z,10.00
2019-05-01T05:46:52.932Z,10.00
2019-05-01T05:48:56.908Z,9.90
2019-05-01T05:51:05.189Z,9.90
2019-05-01T05:53:15.988Z,9.90
2019-05-01T05:55:31.861Z,9.90
2019-05-01T05:57:44.215Z,9.90
2019-05-01T05:59:56.241Z,10.00
2019-05-01T06:02:08.114Z,10.00
2019-05-01T06:04:32.974Z,9.90
2019-05-01T06:06:41.915Z,10.00
2019-05-01T06:08:50.596Z,10.10
2019-05-01T06:11:03.189Z,10.10
2019-05-01T06:13:11.454Z,10.20
2019-05-01T06:15:27.310Z,10.10
2019-05-01T06:17:41.873Z,10.10
2019-05-01T06:20:05.342Z,10.20
2019-05-01T06:22:28.124Z,10.20
2019-05-01T06:24:40.594Z,10.20
2019-05-01T06:26:43.682Z,10.20
2019-05-01T06:28:47.798Z,10.10
2019-05-01T06:30:51.793Z,10.10
2019-05-01T06:32:56.009Z,10.20
2019-05-01T06:35:02.982Z,10.20
2019-05-01T06:37:08.423Z,10.30
2019-05-01T06:39:13.348Z,10.20
2019-05-01T06:41:19.327Z,10.10
2019-05-01T06:43:33.435Z,10.20
2019-05-01T06:45:40.190Z,10.20
2019-05-01T06:47:52.323Z,10.10
2019-05-01T06:50:07.393Z,10.00
2019-05-01T06:52:13.741Z,10.00
2019-05-01T06:54:18.361Z,10.10
2019-05-01T06:56:22.469Z,10.00
2019-05-01T06:58:26.573Z,10.00
2019-05-01T07:00:31.200Z,10.10
2019-05-01T07:02:35.442Z,10.20
2019-05-01T07:04:43.090Z,10.20
2019-05-01T07:06:47.211Z,10.20
2019-05-01T07:08:51.527Z,10.30
2019-05-01T07:10:55.523Z,10.10
2019-05-01T07:13:05.090Z,10.10
2019-05-01T07:15:08.362Z,10.10
2019-05-01T07:17:13.677Z,10.10
2019-05-01T07:19:22.521Z,10.10
2019-05-01T07:21:27.790Z,10.10
2019-05-01T07:23:33.061Z,10.10
2019-05-01T07:25:39.337Z,10.20
2019-05-01T07:27:42.634Z,10.00
2019-05-01T07:29:48.098Z,9.90
2019-05-01T07:31:52.134Z,10.00
2019-05-01T07:33:56.040Z,10.20
2019-05-01T07:36:00.260Z,10.20
2019-05-01T07:38:04.175Z,10.20
2019-05-01T07:40:08.464Z,10.30
2019-05-01T07:42:29.586Z,10.30
2019-05-01T07:44:35.202Z,10.30
2019-05-01T07:46:54.070Z,10.30
2019-05-01T07:48:56.094Z,10.30
2019-05-01T07:51:01.846Z,10.40
2019-05-01T07:53:06.070Z,10.40
2019-05-01T07:55:13.010Z,10.40
2019-05-01T07:57:17.013Z,10.30
2019-05-01T07:59:22.821Z,10.40
2019-05-01T08:01:32.385Z,10.40
2019-05-01T08:03:38.104Z,10.50
2019-05-01T08:05:45.489Z,10.40
2019-05-01T08:07:47.614Z,10.50
2019-05-01T08:09:51.595Z,10.50
2019-05-01T08:11:58.039Z,10.50
2019-05-01T08:14:07.686Z,10.50
2019-05-01T08:16:08.841Z,10.40
2019-05-01T08:18:17.140Z,10.40
2019-05-01T08:20:22.666Z,10.30
2019-05-01T08:22:32.024Z,10.40
2019-05-01T08:24:34.672Z,10.50
2019-05-01T08:26:44.145Z,10.50
2019-05-01T08:29:06.795Z,10.60
2019-05-01T08:31:29.508Z,10.50
2019-05-01T08:33:44.838Z,10.70
2019-05-01T08:35:49.035Z,10.70
2019-05-01T08:37:58.281Z,10.80
2019-05-01T08:39:59.885Z,10.70
2019-05-01T08:42:07.094Z,10.80
2019-05-01T08:44:11.666Z,10.60
2019-05-01T08:46:26.450Z,10.70
2019-05-01T08:48:47.347Z,10.70
2019-05-01T08:50:54.570Z,10.80
2019-05-01T08:52:57.208Z,10.70
2019-05-01T08:55:04.306Z,10.80
2019-05-01T08:57:09.820Z,10.80
2019-05-01T08:59:14.115Z,10.90
2019-05-01T09:01:18.352Z,10.80
2019-05-01T09:03:23.074Z,10.80
2019-05-01T09:05:30.443Z,10.90
2019-05-01T09:07:33.724Z,10.80
2019-05-01T09:09:39.880Z,10.80
2019-05-01T09:11:43.499Z,10.80
2019-05-01T09:13:47.510Z,10.90
2019-05-01T09:15:51.614Z,10.90
2019-05-01T09:17:55.722Z,10.90
2019-05-01T09:19:59.629Z,11.00
2019-05-01T09:22:03.736Z,11.10
2019-05-01T09:24:07.845Z,11.10
2019-05-01T09:26:22.712Z,11.00
2019-05-01T09:28:28.237Z,11.00
2019-05-01T09:30:36.655Z,11.00
2019-05-01T09:32:40.659Z,10.80
2019-05-01T09:34:44.670Z,10.90
2019-05-01T09:36:48.583Z,10.90
2019-05-01T09:38:52.784Z,10.90
2019-05-01T09:40:56.790Z,10.90
2019-05-01T09:43:01.212Z,11.10
2019-05-01T09:45:07.881Z,11.20
2019-05-01T09:47:12.908Z,11.40
2019-05-01T09:49:18.267Z,11.40
2019-05-01T09:51:42.481Z,11.50
2019-05-01T09:53:53.913Z,11.50
2019-05-01T09:56:03.233Z,11.60
2019-05-01T09:58:07.656Z,11.60
2019-05-01T10:00:13.426Z,11.60
2019-05-01T10:02:17.506Z,11.70
2019-05-01T10:04:25.228Z,11.70
2019-05-01T10:06:27.363Z,11.70
2019-05-01T10:08:34.833Z,11.70
2019-05-01T10:10:39.776Z,11.50
2019-05-01T10:12:47.094Z,11.50
2019-05-01T10:14:50.246Z,11.60
2019-05-01T10:16:54.458Z,11.60
2019-05-01T10:18:58.374Z,11.50
2019-05-01T10:21:02.472Z,11.60
2019-05-01T10:23:07.892Z,11.70
2019-05-01T10:25:12.372Z,11.70
2019-05-01T10:27:19.409Z,11.80
2019-05-01T10:29:41.234Z,11.80
2019-05-01T10:32:02.037Z,11.90
2019-05-01T10:34:13.527Z,11.60
2019-05-01T10:36:20.599Z,11.80
2019-05-01T10:38:25.014Z,11.80
2019-05-01T10:40:32.320Z,11.70
2019-05-01T10:42:34.655Z,11.80
2019-05-01T10:44:38.766Z,11.80
2019-05-01T10:46:42.872Z,11.70
2019-05-01T10:48:47.088Z,11.70
2019-05-01T10:50:51.091Z,11.90
2019-05-01T10:52:55.198Z,11.90
2019-05-01T10:54:59.410Z,11.80
2019-05-01T10:57:04.561Z,11.90
2019-05-01T10:59:08.962Z,11.80
2019-05-01T11:01:17.367Z,11.90
2019-05-01T11:03:21.363Z,11.90
2019-05-01T11:05:25.686Z,12.00
2019-05-01T11:07:29.900Z,12.10
2019-05-01T11:09:34.008Z,12.10
2019-05-01T11:11:38.115Z,12.20
2019-05-01T11:13:42.226Z,12.30
2019-05-01T11:15:46.332Z,12.20
2019-05-01T11:17:54.732Z,12.10
2019-05-01T11:20:00.259Z,12.10
2019-05-01T11:22:04.293Z,12.20
2019-05-01T11:24:08.304Z,12.40
2019-05-01T11:26:13.329Z,12.40
2019-05-01T11:28:17.439Z,12.40
2019-05-01T11:30:22.360Z,12.40
2019-05-01T11:32:28.011Z,12.40
2019-05-01T11:34:49.015Z,12.40
2019-05-01T11:36:54.657Z,12.50
2019-05-01T11:39:16.693Z,12.50
2019-05-01T11:41:23.841Z,12.50
2019-05-01T11:43:27.950Z,12.50
2019-05-01T11:45:31.976Z,12.60
2019-05-01T11:47:35.890Z,12.40
2019-05-01T11:49:39.770Z,12.40
2019-05-01T11:51:43.716Z,12.30
2019-05-01T11:53:47.605Z,12.40
2019-05-01T11:55:51.494Z,12.30
2019-05-01T11:57:55.416Z,12.40
2019-05-01T11:59:59.325Z,12.40
2019-05-01T12:02:03.429Z,12.30
2019-05-01T12:04:07.372Z,12.30
2019-05-01T12:06:22.437Z,12.20
2019-05-01T12:08:16.873Z,12.20
2019-05-01T12:10:20.781Z,12.20
2019-05-01T12:12:28.119Z,12.20
2019-05-01T12:14:34.865Z,12.20
2019-05-01T12:16:56.145Z,12.10
2019-05-01T12:19:00.258Z,12.10
2019-05-01T12:21:04.461Z,12.10
2019-05-01T12:23:10.435Z,12.20
2019-05-01T12:25:15.117Z,12.30
2019-05-01T12:27:19.252Z,12.40
2019-05-01T12:29:23.353Z,12.50
2019-05-01T12:31:31.154Z,12.40
2019-05-01T12:33:34.538Z,12.50
2019-05-01T12:35:38.656Z,12.40
2019-05-01T12:37:43.268Z,12.40
2019-05-01T12:39:47.585Z,12.20
2019-05-01T12:41:56.205Z,12.20
2019-05-01T12:44:01.205Z,12.30
2019-05-01T12:46:05.540Z,12.40
2019-05-01T12:48:11.011Z,12.30
2019-05-01T12:50:15.795Z,12.40
2019-05-01T12:52:29.494Z,12.40
2019-05-01T12:54:51.684Z,12.40
2019-05-01T12:57:00.354Z,12.50
2019-05-01T12:59:04.395Z,12.60
2019-05-01T13:01:08.502Z,12.50
2019-05-01T13:03:12.720Z,12.50
2019-05-01T13:05:16.824Z,12.50
2019-05-01T13:07:24.639Z,12.50
2019-05-01T13:09:28.947Z,12.50
2019-05-01T13:11:33.180Z,12.50
2019-05-01T13:13:37.455Z,12.50
2019-05-01T13:15:42.515Z,12.60
2019-05-01T13:17:49.098Z,12.60
2019-05-01T13:19:53.367Z,12.70
2019-05-01T13:21:57.576Z,12.70
2019-05-01T13:24:02.754Z,12.70
2019-05-01T13:26:08.563Z,12.70
2019-05-01T13:28:23.215Z,12.70
2019-05-01T13:30:41.993Z,12.70
2019-05-01T13:32:48.641Z,12.70
2019-05-01T13:34:52.751Z,12.70
2019-05-01T13:37:03.087Z,12.80
2019-05-01T13:39:03.415Z,12.80
2019-05-01T13:41:08.346Z,12.70
2019-05-01T13:43:14.275Z,12.60
2019-05-01T13:45:18.319Z,12.70
2019-05-01T13:47:22.722Z,12.70
2019-05-01T13:49:26.829Z,12.70
2019-05-01T13:51:30.944Z,12.70
2019-05-01T13:53:34.943Z,12.80
2019-05-01T13:55:39.055Z,12.80
2019-05-01T13:57:43.161Z,12.80
2019-05-01T13:59:47.271Z,12.90
2019-05-01T14:01:51.385Z,12.90
2019-05-01T14:03:55.493Z,12.90
2019-05-01T14:05:59.598Z,12.70
2019-05-01T14:08:03.520Z,12.70
2019-05-01T14:10:07.917Z,12.60
2019-05-01T14:12:11.922Z,12.60
2019-05-01T14:14:16.132Z,12.70
2019-05-01T14:16:20.243Z,12.60
2019-05-01T14:18:24.453Z,12.70
2019-05-01T14:20:32.760Z,12.80
2019-05-01T14:22:38.405Z,12.80
2019-05-01T14:24:44.049Z,12.90
2019-05-01T14:26:48.158Z,12.80
2019-05-01T14:28:52.052Z,12.70
2019-05-01T14:30:56.272Z,12.70
2019-05-01T14:33:00.389Z,12.70
2019-05-01T14:35:07.265Z,12.60
2019-05-01T14:37:11.366Z,12.70
2019-05-01T14:39:15.373Z,12.70
2019-05-01T14:41:19.484Z,12.60
2019-05-01T14:43:23.476Z,12.60
2019-05-01T14:45:27.491Z,12.50
2019-05-01T14:47:31.607Z,12.50
2019-05-01T14:49:35.606Z,12.50
2019-05-01T14:51:40.230Z,12.50
2019-05-01T14:53:44.333Z,12.50
2019-05-01T14:55:48.443Z,12.40
2019-05-01T14:57:52.555Z,12.40
2019-05-01T14:59:56.663Z,12.30
2019-05-01T15:02:00.772Z,12.40
2019-05-01T15:04:04.994Z,12.50
2019-05-01T15:06:08.872Z,12.50
2019-05-01T15:08:12.995Z,12.50
2019-05-01T15:10:17.077Z,12.50
2019-05-01T15:12:21.112Z,12.60
2019-05-01T15:14:29.415Z,12.60
2019-05-01T15:16:37.826Z,12.60
2019-05-01T15:18:46.442Z,12.60
2019-05-01T15:20:50.548Z,12.60
2019-05-01T15:22:54.657Z,12.60
2019-05-01T15:24:58.765Z,12.60
2019-05-01T15:27:02.770Z,12.60
2019-05-01T15:29:07.085Z,12.60
2019-05-01T15:31:11.196Z,12.70
2019-05-01T15:33:15.313Z,12.70
2019-05-01T15:35:19.514Z,12.60
2019-05-01T15:37:23.521Z,12.50
2019-05-01T15:39:29.168Z,12.60
2019-05-01T15:41:41.261Z,12.50
2019-05-01T15:43:46.909Z,12.50
2019-05-01T15:45:50.911Z,12.50
2019-05-01T15:47:55.125Z,12.50
2019-05-01T15:49:59.333Z,12.50
2019-05-01T15:52:03.544Z,12.50
2019-05-01T15:54:07.764Z,12.50
2019-05-01T15:56:11.761Z,12.40
2019-05-01T15:58:15.872Z,12.40
2019-05-01T16:00:21.415Z,12.40
2019-05-01T16:02:25.532Z,12.40
2019-05-01T16:04:29.632Z,12.30
2019-05-01T16:06:33.533Z,12.30
2019-05-01T16:08:37.642Z,12.40
2019-05-01T16:10:43.185Z,12.40
2019-05-01T16:12:56.167Z,12.20
2019-05-01T16:15:00.619Z,12.30
2019-05-01T16:17:04.627Z,12.30
2019-05-01T16:19:08.631Z,12.30
2019-05-01T16:21:12.740Z,12.30
2019-05-01T16:23:16.648Z,12.40
2019-05-01T16:25:20.751Z,12.40
2019-05-01T16:27:24.759Z,12.50
2019-05-01T16:29:28.868Z,12.40
2019-05-01T16:31:32.772Z,12.30
2019-05-01T16:33:36.880Z,12.40
2019-05-01T16:35:40.990Z,12.40
2019-05-01T16:37:45.097Z,12.30
2019-05-01T16:39:56.375Z,12.30
2019-05-01T16:42:00.485Z,12.20
2019-05-01T16:44:04.591Z,12.10
2019-05-01T16:46:08.598Z,12.10
2019-05-01T16:48:12.500Z,12.10
2019-05-01T16:50:16.612Z,12.30
2019-05-01T16:52:22.254Z,12.30
2019-05-01T16:54:26.260Z,12.40
2019-05-01T16:56:32.998Z,12.50
2019-05-01T16:58:35.911Z,12.60
2019-05-01T17:01:02.609Z,12.40
2019-05-01T17:03:14.239Z,12.40
2019-05-01T17:05:28.792Z,12.20
2019-05-01T17:07:40.270Z,12.00
2019-05-01T17:09:45.941Z,12.00
2019-05-01T17:11:49.920Z,12.00
2019-05-01T17:13:53.925Z,12.00
2019-05-01T17:15:59.182Z,12.00
2019-05-01T17:18:03.479Z,11.90
2019-05-01T17:20:07.954Z,11.90
2019-05-01T17:22:14.224Z,11.90
2019-05-01T17:24:17.649Z,11.80
2019-05-01T17:26:22.054Z,11.80
2019-05-01T17:28:26.067Z,11.80
2019-05-01T17:30:41.541Z,11.90
2019-05-01T17:32:45.752Z,11.80
2019-05-01T17:34:49.872Z,11.80
2019-05-01T17:36:53.870Z,11.70
2019-05-01T17:38:57.979Z,11.70
2019-05-01T17:41:01.986Z,11.60
2019-05-01T17:43:08.273Z,11.60
2019-05-01T17:45:12.048Z,11.60
2019-05-01T17:47:17.956Z,11.60
2019-05-01T17:49:21.696Z,11.60
2019-05-01T17:51:25.803Z,11.60
2019-05-01T17:53:29.810Z,11.60
2019-05-01T17:55:34.121Z,11.60
2019-05-01T17:57:38.232Z,11.50
2019-05-01T17:59:42.339Z,11.50
2019-05-01T18:01:50.646Z,11.50
2019-05-01T18:03:59.264Z,11.50
2019-05-01T18:06:16.988Z,11.40
2019-05-01T18:08:20.914Z,11.40
2019-05-01T18:10:25.004Z,11.30
2019-05-01T18:12:30.219Z,11.30
2019-05-01T18:14:34.448Z,11.30
2019-05-01T18:16:38.571Z,11.20
2019-05-01T18:18:43.068Z,11.20
2019-05-01T18:20:47.080Z,11.20
2019-05-01T18:23:12.357Z,11.20
2019-05-01T18:25:33.260Z,11.20
2019-05-01T18:27:43.137Z,11.10
2019-05-01T18:29:48.898Z,11.10
2019-05-01T18:31:52.987Z,11.10
2019-05-01T18:34:02.232Z,11.10
2019-05-01T18:36:02.742Z,11.00
2019-05-01T18:38:11.642Z,11.00
2019-05-01T18:40:21.686Z,10.90
2019-05-01T18:42:25.706Z,10.90
2019-05-01T18:44:29.626Z,11.00
2019-05-01T18:46:33.510Z,10.90
2019-05-01T18:48:37.428Z,10.90
2019-05-01T18:50:41.320Z,10.90
2019-05-01T18:52:45.346Z,10.90
2019-05-01T18:54:49.253Z,10.90
2019-05-01T18:56:54.671Z,10.80
2019-05-01T18:58:58.902Z,10.80
2019-05-01T19:01:04.136Z,10.80
2019-05-01T19:03:08.492Z,10.80
2019-05-01T19:05:12.420Z,10.80
2019-05-01T19:07:16.308Z,10.70
2019-05-01T19:09:29.831Z,10.70
2019-05-01T19:11:25.846Z,10.70
2019-05-01T19:13:29.825Z,10.70
2019-05-01T19:15:33.729Z,10.60
2019-05-01T19:17:37.623Z,10.60
2019-05-01T19:19:41.547Z,10.60
2019-05-01T19:21:48.016Z,10.60
2019-05-01T19:23:52.430Z,10.70
2019-05-01T19:26:03.373Z,10.70
2019-05-01T19:28:04.190Z,10.60
2019-05-01T19:30:15.048Z,10.60
2019-05-01T19:32:22.472Z,10.70
2019-05-01T19:34:26.559Z,10.70
2019-05-01T19:36:30.770Z,10.60
2019-05-01T19:38:36.746Z,10.50
2019-05-01T19:40:40.548Z,10.50
2019-05-01T19:42:44.537Z,10.60
2019-05-01T19:44:51.038Z,10.50
2019-05-01T19:46:54.313Z,10.60
2019-05-01T19:48:58.510Z,10.60
2019-05-01T19:51:04.343Z,10.60
2019-05-01T19:53:10.138Z,10.50
2019-05-01T19:55:14.530Z,10.50
2019-05-01T19:57:20.786Z,10.50
2019-05-01T19:59:24.872Z,10.50
2019-05-01T20:01:28.982Z,10.50
2019-05-01T20:03:36.131Z,10.50
2019-05-01T20:05:41.626Z,10.50
2019-05-01T20:07:44.483Z,10.50
2019-05-01T20:09:56.749Z,10.50
2019-05-01T20:11:55.371Z,10.40
2019-05-01T20:13:59.472Z,10.50
2019-05-01T20:16:03.996Z,10.50
2019-05-01T20:18:09.670Z,10.40
2019-05-01T20:20:15.469Z,10.40
2019-05-01T20:22:19.801Z,10.40
2019-05-01T20:24:23.699Z,10.40
2019-05-01T20:26:32.003Z,10.50
2019-05-01T20:28:33.976Z,10.40
2019-05-01T20:30:38.076Z,10.40
2019-05-01T20:32:42.081Z,10.40
2019-05-01T20:34:48.006Z,10.30
2019-05-01T20:36:51.629Z,10.20
2019-05-01T20:38:58.143Z,10.10
2019-05-01T20:41:02.211Z,10.20
2019-05-01T20:43:07.264Z,10.30
2019-05-01T20:45:18.369Z,10.10
2019-05-01T20:47:34.157Z,10.10
2019-05-01T20:49:24.786Z,10.00
2019-05-01T20:51:28.854Z,10.10
2019-05-01T20:53:34.966Z,10.10
2019-05-01T20:55:39.470Z,10.10
2019-05-01T20:57:45.007Z,10.00
2019-05-01T20:59:49.217Z,10.00
2019-05-01T21:01:53.323Z,10.00
2019-05-01T21:04:03.378Z,9.90
2019-05-01T21:06:11.678Z,10.00
2019-05-01T21:08:19.681Z,10.00
2019-05-01T21:10:29.977Z,10.00
2019-05-01T21:12:31.792Z,9.80
2019-05-01T21:14:35.698Z,9.90
2019-05-01T21:16:39.907Z,9.90
2019-05-01T21:18:46.863Z,9.90
2019-05-01T21:20:50.996Z,9.90
2019-05-01T21:22:54.997Z,9.90
2019-05-01T21:24:59.105Z,9.80
2019-05-01T21:27:03.522Z,9.80
2019-05-01T21:29:07.945Z,9.70
2019-05-01T21:31:13.767Z,9.80
2019-05-01T21:33:19.120Z,9.80
2019-05-01T21:35:24.560Z,9.80
2019-05-01T21:37:28.670Z,9.80
2019-05-01T21:39:33.484Z,9.80
2019-05-01T21:41:37.807Z,9.80
2019-05-01T21:43:42.490Z,9.80
2019-05-01T21:45:46.752Z,9.80
2019-05-01T21:47:52.751Z,9.80
2019-05-01T21:49:56.600Z,9.80
2019-05-01T21:52:00.604Z,9.80
2019-05-01T21:54:04.611Z,9.80
2019-05-01T21:56:08.719Z,9.80
2019-05-01T21:58:15.181Z,9.80
2019-05-01T22:00:20.007Z,9.80
2019-05-01T22:02:24.620Z,9.80
2019-05-01T22:04:31.937Z,9.70
2019-05-01T22:06:34.282Z,9.80
2019-05-01T22:08:39.118Z,9.90
2019-05-01T22:10:51.789Z,9.80
2019-05-01T22:12:50.871Z,9.80
2019-05-01T22:14:56.659Z,9.80
2019-05-01T22:17:01.274Z,9.90
2019-05-01T22:19:15.727Z,9.90
2019-05-01T22:21:21.374Z,9.80
2019-05-01T22:23:27.126Z,9.80
2019-05-01T22:25:32.863Z,9.80
2019-05-01T22:27:38.294Z,9.80
2019-05-01T22:29:52.567Z,9.80
2019-05-01T22:31:58.807Z,9.80
2019-05-01T22:34:04.489Z,9.90
2019-05-01T22:36:08.613Z,9.90
2019-05-01T22:38:12.485Z,9.90
2019-05-01T22:40:18.117Z,9.90
2019-05-01T22:42:22.023Z,9.80
2019-05-01T22:44:25.887Z,9.80
2019-05-01T22:46:33.747Z,9.80
2019-05-01T22:48:35.744Z,9.80
2019-05-01T22:50:39.616Z,9.80
2019-05-01T22:52:43.630Z,9.80
2019-05-01T22:54:48.883Z,9.80
2019-05-01T22:56:53.035Z,9.80
2019-05-01T22:58:56.930Z,9.90
2019-05-01T23:01:01.317Z,9.90
2019-05-01T23:03:07.322Z,9.80
2019-05-01T23:05:12.068Z,9.80
2019-05-01T23:07:16.816Z,9.80
2019-05-01T23:09:23.495Z,9.80
2019-05-01T23:11:28.980Z,9.80
2019-05-01T23:13:32.835Z,9.80
2019-05-01T23:15:36.741Z,9.70
2019-05-01T23:17:42.177Z,9.70
2019-05-01T23:19:46.082Z,9.70
2019-05-01T23:21:51.020Z,9.80
2019-05-01T23:23:56.740Z,9.70
2019-05-01T23:26:01.115Z,9.70
2019-05-01T23:28:06.056Z,9.70
2019-05-01T23:30:11.598Z,9.70
2019-05-01T23:32:15.488Z,9.70
2019-05-01T23:34:21.138Z,9.60
2019-05-01T23:36:24.908Z,9.60
2019-05-01T23:38:28.776Z,9.60
2019-05-01T23:40:32.718Z,9.60
2019-05-01T23:42:36.581Z,9.60
2019-05-01T23:44:42.969Z,9.60
2019-05-01T23:46:46.006Z,9.80
2019-05-01T23:48:49.909Z,9.60
2019-05-01T23:50:53.774Z,9.60
2019-05-01T23:52:57.681Z,9.70
2019-05-01T23:55:01.647Z,9.70
2019-05-01T23:57:05.508Z,9.70
2019-05-01T23:59:09.437Z,9.70
